Time;durP1;ratioP1;P1;durP2;ratioP2;P2;SDS_P1;SDS_P2;PMS_P1;PMS_P2;Temp;Humidity;BMP_temperature;BMP_pressure;BME280_temperature;BME280_humidity;BME280_pressure;Samples;Min_cycle;Max_cycle;Signal;HPM_P1;HPM_P2
2022/09/03 00:00:26;;;;;;;;;;;;;;;;;;2196738;67;1928;-52
2022/09/03 00:03:01;;;;;;;;;;;;;;;;;;2196986;59;1296;-53
2022/09/03 00:05:38;;;;;;;;;;;;;;;;;;2197058;67;1154;-54
2022/09/03 00:08:19;;;;;;;;;;;;;;;;;;2196530;59;1251;-53
2022/09/03 00:10:58;;;;;;;;;;;;;;;;;;2196660;59;1697;-53
2022/09/03 00:13:35;;;;;;;;;;;;;;;;;;2196608;67;1192;-54
2022/09/03 00:16:11;;;;;;;;;;;;;;;;;;2196228;67;1206;-53
2022/09/03 00:18:47;;;;;;;;;;;;;;;;;;2194978;67;1991;-52
2022/09/03 00:21:33;;;;;;;;;;;;;;;;;;2196323;67;1244;-53
2022/09/03 00:24:09;;;;;;;;;;;;;;;;;;2194424;67;1273;-53
2022/09/03 00:26:48;;;;;;;;;;;;;;;;;;2196628;59;1531;-53
2022/09/03 00:29:24;;;;;;;;;;;;;;;;;;2196726;59;1680;-53
2022/09/03 00:32:00;;;;;;;;;;;;;;;;;;2196417;67;1305;-53
2022/09/03 00:34:38;;;;;;;;;;;;;;;;;;2196517;67;1261;-52
2022/09/03 00:37:11;;;;;;;;;;;;;;;;;;2196981;59;1374;-52
2022/09/03 00:39:45;;;;;;;;;;;;;;;;;;2196440;59;1993;-52
2022/09/03 00:42:31;;;;;;;;;;;;;;;;;;2196662;59;1891;-53
2022/09/03 00:45:19;;;;;;;;;;;;;;;;;;2196843;67;1200;-53
2022/09/03 00:48:04;;;;;;;;;;;;;;;;;;2196444;67;1266;-51
2022/09/03 00:50:43;;;;;;;;;;;;;;;;;;2196375;67;1034;-53
2022/09/03 00:53:22;;;;;;;;;;;;;;;;;;2196558;67;1241;-53
2022/09/03 00:55:59;;;;;;;;;;;;;;;;;;2196410;67;1152;-53
2022/09/03 00:58:46;;;;;;;;;;;;;;;;;;2196752;67;1988;-53
2022/09/03 01:01:22;;;;;;;;;;;;;;;;;;2196268;67;1148;-53
2022/09/03 01:04:06;;;;;;;;;;;;;;;;;;2193106;59;1133;-53
2022/09/03 01:06:44;;;;;;;;;;;;;;;;;;2196440;59;1227;-52
2022/09/03 01:09:28;;;;;;;;;;;;;;;;;;2196413;59;1292;-53
2022/09/03 01:12:04;;;;;;;;;;;;;;;;;;2196724;59;1207;-53
2022/09/03 01:14:47;;;;;;;;;;;;;;;;;;2196943;67;1104;-53
2022/09/03 01:17:26;;;;;;;;;;;;;;;;;;2196955;67;1271;-52
2022/09/03 01:20:11;;;;;;;;;;;;;;;;;;2195913;67;1928;-51
2022/09/03 01:22:59;;;;;;;;;;;;;;;;;;2196457;67;1105;-52
2022/09/03 01:25:39;;;;;;;;;;;;;;;;;;2196342;67;2582;-53
2022/09/03 01:28:20;;;;;;;;;;;;;;;;;;2196184;59;1714;-58
2022/09/03 01:31:10;;;;;;;;;;;;;;;;;;2195934;67;1127;-52
2022/09/03 01:33:48;;;;;;;;;;;;;;;;;;2196329;67;1157;-52
2022/09/03 01:36:26;;;;;;;;;;;;;;;;;;2195839;59;1379;-53
2022/09/03 01:39:01;;;;;;;;;;;;;;;;;;2196047;67;1924;-52
2022/09/03 01:44:39;;;;;;;;;;;;;;;;;;2196650;67;1702;-52
2022/09/03 01:47:18;;;;;;;;;;;;;;;;;;2196092;67;1216;-53
2022/09/03 01:49:56;;;;;;;;;;;;;;;;;;2195609;67;1125;-52
2022/09/03 01:52:40;;;;;;;;;;;;;;;;;;2196536;67;1149;-52
2022/09/03 01:55:22;;;;;;;;;;;;;;;;;;2196087;67;1241;-53
2022/09/03 01:57:58;;;;;;;;;;;;;;;;;;2195988;67;1265;-52
2022/09/03 02:00:36;;;;;;;;;;;;;;;;;;2195781;67;1924;-54
2022/09/03 02:03:11;;;;;;;;;;;;;;;;;;2195800;59;1204;-53
2022/09/03 02:05:46;;;;;;;;;;;;;;;;;;2195579;67;1248;-52
2022/09/03 02:08:19;;;;;;;;;;;;;;;;;;2193066;67;1308;-53
2022/09/03 02:10:55;;;;;;;;;;;;;;;;;;2195597;59;1645;-53
2022/09/03 02:13:30;;;;;;;;;;;;;;;;;;2195916;67;1258;-54
2022/09/03 02:16:11;;;;;;;;;;;;;;;;;;2195671;67;1247;-53
2022/09/03 02:18:47;;;;;;;;;;;;;;;;;;2195791;67;1216;-52
2022/09/03 02:21:22;;;;;;;;;;;;;;;;;;2196116;67;1936;-53
2022/09/03 02:23:56;;;;;;;;;;;;;;;;;;2195689;67;1153;-52
2022/09/03 02:26:29;;;;;;;;;;;;;;;;;;2195595;59;1544;-53
2022/09/03 02:29:03;;;;;;;;;;;;;;;;;;2195678;59;1456;-54
2022/09/03 02:31:39;;;;;;;;;;;;;;;;;;2195710;67;1166;-52
2022/09/03 02:34:12;;;;;;;;;;;;;;;;;;2195768;67;1179;-56
2022/09/03 02:36:46;;;;;;;;;;;;;;;;;;2195641;59;1268;-53
2022/09/03 02:39:20;;;;;;;;;;;;;;;;;;2196245;59;1935;-53
2022/09/03 02:41:56;;;;;;;;;;;;;;;;;;2195411;67;1131;-54
2022/09/03 02:44:31;;;;;;;;;;;;;;;;;;2195706;67;1328;-53
2022/09/03 02:47:08;;;;;;;;;;;;;;;;;;2195539;67;1204;-54
2022/09/03 02:49:42;;;;;;;;;;;;;;;;;;2194955;67;1152;-54
2022/09/03 02:52:15;;;;;;;;;;;;;;;;;;2195530;67;1165;-53
2022/09/03 02:54:48;;;;;;;;;;;;;;;;;;2195301;67;1121;-51
2022/09/03 02:57:21;;;;;;;;;;;;;;;;;;2195150;67;1647;-53
2022/09/03 02:59:55;;;;;;;;;;;;;;;;;;2195176;67;1936;-53
2022/09/03 03:02:31;;;;;;;;;;;;;;;;;;2192908;67;1806;-53
2022/09/03 03:05:04;;;;;;;;;;;;;;;;;;2194773;59;2318;-53
2022/09/03 03:07:39;;;;;;;;;;;;;;;;;;2195330;59;1513;-53
2022/09/03 03:10:13;;;;;;;;;;;;;;;;;;2195898;59;1288;-53
2022/09/03 03:12:47;;;;;;;;;;;;;;;;;;2192730;59;1602;-53
2022/09/03 03:15:20;;;;;;;;;;;;;;;;;;2195831;67;1235;-54
2022/09/03 03:17:57;;;;;;;;;;;;;;;;;;2195162;67;1270;-59
2022/09/03 03:20:30;;;;;;;;;;;;;;;;;;2193299;59;1982;-57
2022/09/03 03:23:04;;;;;;;;;;;;;;;;;;2195091;67;1148;-57
2022/09/03 03:25:37;;;;;;;;;;;;;;;;;;2194944;67;1069;-59
2022/09/03 03:28:12;;;;;;;;;;;;;;;;;;2194931;59;1560;-54
2022/09/03 03:30:47;;;;;;;;;;;;;;;;;;2193985;67;2200;-60
2022/09/03 03:33:23;;;;;;;;;;;;;;;;;;2195765;67;1273;-59
2022/09/03 03:35:57;;;;;;;;;;;;;;;;;;2194010;59;1297;-58
2022/09/03 03:38:30;;;;;;;;;;;;;;;;;;2195829;59;1323;-59
2022/09/03 03:41:08;;;;;;;;;;;;;;;;;;2191667;67;1997;-59
2022/09/03 03:43:41;;;;;;;;;;;;;;;;;;2195229;67;1105;-59
2022/09/03 03:46:15;;;;;;;;;;;;;;;;;;2195462;67;1255;-59
2022/09/03 03:48:52;;;;;;;;;;;;;;;;;;2194959;67;1200;-60
2022/09/03 03:51:25;;;;;;;;;;;;;;;;;;2195484;67;1273;-57
2022/09/03 03:53:59;;;;;;;;;;;;;;;;;;2194915;60;1121;-58
2022/09/03 03:56:32;;;;;;;;;;;;;;;;;;2195306;67;1240;-57
2022/09/03 03:59:05;;;;;;;;;;;;;;;;;;2191488;67;1329;-58
2022/09/03 04:01:39;;;;;;;;;;;;;;;;;;2194313;60;1933;-58
2022/09/03 04:04:15;;;;;;;;;;;;;;;;;;2194931;59;1259;-59
2022/09/03 04:06:48;;;;;;;;;;;;;;;;;;2194804;59;1265;-60
2022/09/03 04:09:21;;;;;;;;;;;;;;;;;;2195267;59;1284;-60
2022/09/03 04:11:55;;;;;;;;;;;;;;;;;;2194963;59;1142;-57
2022/09/03 04:14:29;;;;;;;;;;;;;;;;;;2194721;67;1259;-59
2022/09/03 04:17:02;;;;;;;;;;;;;;;;;;2194577;67;1262;-60
2022/09/03 04:19:38;;;;;;;;;;;;;;;;;;2194906;67;1290;-57
2022/09/03 04:22:12;;;;;;;;;;;;;;;;;;2195348;67;2084;-59
2022/09/03 04:24:46;;;;;;;;;;;;;;;;;;2194709;60;1141;-58
2022/09/03 04:27:19;;;;;;;;;;;;;;;;;;2194603;59;1601;-60
2022/09/03 04:29:52;;;;;;;;;;;;;;;;;;2194317;67;1658;-55
2022/09/03 04:35:17;;;;;;;;;;;;;;;;;;2195373;67;1158;-60
2022/09/03 04:37:50;;;;;;;;;;;;;;;;;;2195172;59;1264;-56
2022/09/03 04:40:23;;;;;;;;;;;;;;;;;;2195956;67;1936;-59
2022/09/03 04:42:58;;;;;;;;;;;;;;;;;;2195569;67;1187;-58
2022/09/03 04:45:32;;;;;;;;;;;;;;;;;;2196023;67;1029;-58
2022/09/03 04:48:09;;;;;;;;;;;;;;;;;;2195313;67;1199;-58
2022/09/03 04:50:45;;;;;;;;;;;;;;;;;;2195528;59;1106;-57
2022/09/03 04:53:18;;;;;;;;;;;;;;;;;;2195419;67;1463;-57
2022/09/03 04:55:51;;;;;;;;;;;;;;;;;;2195557;67;1179;-58
2022/09/03 04:58:24;;;;;;;;;;;;;;;;;;2195210;67;1289;-56
2022/09/03 05:00:58;;;;;;;;;;;;;;;;;;2194722;67;1939;-56
2022/09/03 05:03:31;;;;;;;;;;;;;;;;;;2195464;59;1106;-58
2022/09/03 05:08:53;;;;;;;;;;;;;;;;;;2188724;59;1557;-70
2022/09/03 05:11:27;;;;;;;;;;;;;;;;;;2192495;59;1156;-70
2022/09/03 05:14:01;;;;;;;;;;;;;;;;;;2190874;59;1261;-70
2022/09/03 05:16:35;;;;;;;;;;;;;;;;;;2191504;67;1294;-70
2022/09/03 05:19:08;;;;;;;;;;;;;;;;;;2190397;59;2366;-70
2022/09/03 05:21:42;;;;;;;;;;;;;;;;;;2196655;54;2104;-61
2022/09/03 05:24:17;;;;;;;;;;;;;;;;;;2195711;67;1089;-64
2022/09/03 05:26:50;;;;;;;;;;;;;;;;;;2195847;59;1572;-65
2022/09/03 05:29:24;;;;;;;;;;;;;;;;;;2198904;59;1600;-63
2022/09/03 05:31:57;;;;;;;;;;;;;;;;;;2198692;66;1139;-63
2022/09/03 05:34:31;;;;;;;;;;;;;;;;;;2198605;59;1193;-63
2022/09/03 05:37:04;;;;;;;;;;;;;;;;;;2198516;59;1282;-63
2022/09/03 05:39:40;;;;;;;;;;;;;;;;;;2198729;67;1128;-62
2022/09/03 05:42:13;;;;;;;;;;;;;;;;;;2198736;67;2004;-61
2022/09/03 05:44:48;;;;;;;;;;;;;;;;;;2198583;66;1285;-63
2022/09/03 05:47:21;;;;;;;;;;;;;;;;;;2198696;67;1267;-63
2022/09/03 05:49:54;;;;;;;;;;;;;;;;;;2198721;67;1180;-61
2022/09/03 05:52:27;;;;;;;;;;;;;;;;;;2198326;67;1246;-62
2022/09/03 05:55:03;;;;;;;;;;;;;;;;;;2198594;67;1252;-61
2022/09/03 05:57:36;;;;;;;;;;;;;;;;;;2198862;67;1242;-62
2022/09/03 06:00:11;;;;;;;;;;;;;;;;;;2198401;67;1153;-63
2022/09/03 06:02:44;;;;;;;;;;;;;;;;;;2197642;59;1938;-62
2022/09/03 06:05:17;;;;;;;;;;;;;;;;;;2198343;67;1116;-62
2022/09/03 06:07:50;;;;;;;;;;;;;;;;;;2198178;67;1248;-60
2022/09/03 06:10:26;;;;;;;;;;;;;;;;;;2197776;59;1835;-64
2022/09/03 06:13:02;;;;;;;;;;;;;;;;;;2198338;59;1245;-63
2022/09/03 06:15:35;;;;;;;;;;;;;;;;;;2197545;67;1181;-63
2022/09/03 06:18:08;;;;;;;;;;;;;;;;;;2198450;66;1195;-64
2022/09/03 06:20:42;;;;;;;;;;;;;;;;;;2198170;59;1985;-64
2022/09/03 06:23:15;;;;;;;;;;;;;;;;;;2197935;67;1080;-63
2022/09/03 06:26:00;;;;;;;;;;;;;;;;;;2198624;67;1147;-62
2022/09/03 06:28:35;;;;;;;;;;;;;;;;;;2198575;59;1882;-62
2022/09/03 06:31:09;;;;;;;;;;;;;;;;;;2198417;67;1139;-62
2022/09/03 06:33:42;;;;;;;;;;;;;;;;;;2198647;67;1162;-63
2022/09/03 06:36:17;;;;;;;;;;;;;;;;;;2197655;59;1302;-64
2022/09/03 06:38:53;;;;;;;;;;;;;;;;;;2198412;67;1128;-63
2022/09/03 06:41:31;;;;;;;;;;;;;;;;;;2198780;67;1934;-63
2022/09/03 06:44:05;;;;;;;;;;;;;;;;;;2197893;67;1245;-64
2022/09/03 06:46:41;;;;;;;;;;;;;;;;;;2198618;67;1257;-63
2022/09/03 06:49:14;;;;;;;;;;;;;;;;;;2198517;67;1170;-64
2022/09/03 06:51:47;;;;;;;;;;;;;;;;;;2198416;67;1147;-61
2022/09/03 06:54:21;;;;;;;;;;;;;;;;;;2198536;59;1207;-64
2022/09/03 06:56:57;;;;;;;;;;;;;;;;;;2198350;67;1152;-64
2022/09/03 06:59:31;;;;;;;;;;;;;;;;;;2198482;67;1104;-64
2022/09/03 07:02:04;;;;;;;;;;;;;;;;;;2197868;67;1933;-65
2022/09/03 07:04:37;;;;;;;;;;;;;;;;;;2198725;59;1144;-65
2022/09/03 07:07:12;;;;;;;;;;;;;;;;;;2197341;67;1255;-63
2022/09/03 07:09:45;;;;;;;;;;;;;;;;;;2198112;59;1216;-63
2022/09/03 07:12:22;;;;;;;;;;;;;;;;;;2198618;59;1256;-63
2022/09/03 07:14:55;;;;;;;;;;;;;;;;;;2197817;67;1108;-62
2022/09/03 07:17:28;;;;;;;;;;;;;;;;;;2198705;67;1296;-64
2022/09/03 07:20:01;;;;;;;;;;;;;;;;;;2197626;59;1175;-64
2022/09/03 07:22:34;;;;;;;;;;;;;;;;;;2198494;67;1925;-64
2022/09/03 07:25:08;;;;;;;;;;;;;;;;;;2198183;67;1252;-62
2022/09/03 07:27:43;;;;;;;;;;;;;;;;;;2198152;59;1623;-61
2022/09/03 07:30:18;;;;;;;;;;;;;;;;;;2198047;67;1276;-63
2022/09/03 07:32:52;;;;;;;;;;;;;;;;;;2198507;67;1125;-63
2022/09/03 07:35:26;;;;;;;;;;;;;;;;;;2198025;67;1203;-64
2022/09/03 07:37:59;;;;;;;;;;;;;;;;;;2197952;67;1225;-60
2022/09/03 07:40:33;;;;;;;;;;;;;;;;;;2198579;67;1009;-64
2022/09/03 07:43:09;;;;;;;;;;;;;;;;;;2197845;67;1943;-64
2022/09/03 07:45:45;;;;;;;;;;;;;;;;;;2198007;67;1112;-64
2022/09/03 07:48:18;;;;;;;;;;;;;;;;;;2198332;67;1283;-64
2022/09/03 07:50:52;;;;;;;;;;;;;;;;;;2198315;67;1203;-62
2022/09/03 07:53:25;;;;;;;;;;;;;;;;;;2198599;67;1218;-61
2022/09/03 07:56:02;;;;;;;;;;;;;;;;;;2197672;67;1306;-63
2022/09/03 07:58:39;;;;;;;;;;;;;;;;;;2198497;67;1343;-62
2022/09/03 08:01:13;;;;;;;;;;;;;;;;;;2197943;67;1997;-62
2022/09/03 08:03:47;;;;;;;;;;;;;;;;;;2198545;59;1303;-64
2022/09/03 08:06:21;;;;;;;;;;;;;;;;;;2197540;67;1176;-63
2022/09/03 08:08:59;;;;;;;;;;;;;;;;;;2198535;67;1228;-63
2022/09/03 08:11:33;;;;;;;;;;;;;;;;;;2199312;59;1215;-62
2022/09/03 08:14:10;;;;;;;;;;;;;;;;;;2198115;67;1076;-64
2022/09/03 08:16:44;;;;;;;;;;;;;;;;;;2198688;67;1305;-64
2022/09/03 08:19:18;;;;;;;;;;;;;;;;;;2198572;67;1208;-63
2022/09/03 08:21:51;;;;;;;;;;;;;;;;;;2198790;59;1937;-64
2022/09/03 08:24:25;;;;;;;;;;;;;;;;;;2199054;67;1202;-64
2022/09/03 08:26:58;;;;;;;;;;;;;;;;;;2198802;59;1651;-64
2022/09/03 08:29:34;;;;;;;;;;;;;;;;;;2198506;67;1115;-64
2022/09/03 08:32:07;;;;;;;;;;;;;;;;;;2198948;67;1104;-64
2022/09/03 08:34:40;;;;;;;;;;;;;;;;;;2198464;67;1056;-64
2022/09/03 08:37:13;;;;;;;;;;;;;;;;;;2198760;59;1354;-61
2022/09/03 08:39:47;;;;;;;;;;;;;;;;;;2199118;67;1218;-62
2022/09/03 08:42:31;;;;;;;;;;;;;;;;;;2199145;67;1991;-64
2022/09/03 08:45:09;;;;;;;;;;;;;;;;;;2198854;67;1065;-63
2022/09/03 08:47:45;;;;;;;;;;;;;;;;;;2198667;67;1264;-61
2022/09/03 08:50:23;;;;;;;;;;;;;;;;;;2198398;67;1254;-62
2022/09/03 08:53:00;;;;;;;;;;;;;;;;;;2198520;66;1152;-64
2022/09/03 08:55:41;;;;;;;;;;;;;;;;;;2198386;67;1297;-64
2022/09/03 08:58:17;;;;;;;;;;;;;;;;;;2198861;67;1941;-63
2022/09/03 09:01:00;;;;;;;;;;;;;;;;;;2198739;67;1199;-65
2022/09/03 09:03:36;;;;;;;;;;;;;;;;;;2199204;59;1932;-65
2022/09/03 09:06:13;;;;;;;;;;;;;;;;;;2198280;67;1188;-64
2022/09/03 09:08:50;;;;;;;;;;;;;;;;;;2198103;67;1223;-65
2022/09/03 09:11:32;;;;;;;;;;;;;;;;;;2199183;59;1168;-64
2022/09/03 09:14:15;;;;;;;;;;;;;;;;;;2198039;67;1196;-64
2022/09/03 09:16:57;;;;;;;;;;;;;;;;;;2198385;67;1191;-63
2022/09/03 09:19:38;;;;;;;;;;;;;;;;;;2198431;67;1157;-63
2022/09/03 09:22:13;;;;;;;;;;;;;;;;;;2198659;59;1929;-64
2022/09/03 09:24:48;;;;;;;;;;;;;;;;;;2198617;67;1182;-64
2022/09/03 09:27:21;;;;;;;;;;;;;;;;;;2198377;59;1651;-64
2022/09/03 09:29:56;;;;;;;;;;;;;;;;;;2198536;67;1164;-64
2022/09/03 09:32:33;;;;;;;;;;;;;;;;;;2198639;67;1152;-63
2022/09/03 09:35:10;;;;;;;;;;;;;;;;;;2198455;67;1140;-65
2022/09/03 09:37:50;;;;;;;;;;;;;;;;;;2197604;59;1274;-63
2022/09/03 09:40:33;;;;;;;;;;;;;;;;;;2198644;67;1236;-65
2022/09/03 09:43:11;;;;;;;;;;;;;;;;;;2198455;67;1979;-65
2022/09/03 09:45:45;;;;;;;;;;;;;;;;;;2198075;67;1085;-62
2022/09/03 09:48:25;;;;;;;;;;;;;;;;;;2198669;67;1291;-63
2022/09/03 09:51:08;;;;;;;;;;;;;;;;;;2198762;67;1244;-60
2022/09/03 09:53:41;;;;;;;;;;;;;;;;;;2199042;67;1275;-63
2022/09/03 09:56:22;;;;;;;;;;;;;;;;;;2198972;67;1306;-62
2022/09/03 09:59:04;;;;;;;;;;;;;;;;;;2198387;67;1125;-65
2022/09/03 10:01:39;;;;;;;;;;;;;;;;;;2198039;67;1188;-64
2022/09/03 10:04:23;;;;;;;;;;;;;;;;;;2199366;59;1936;-65
2022/09/03 10:06:58;;;;;;;;;;;;;;;;;;2199197;67;1282;-65
2022/09/03 10:09:32;;;;;;;;;;;;;;;;;;2198702;67;1166;-63
2022/09/03 10:12:13;;;;;;;;;;;;;;;;;;2198757;59;1194;-65
2022/09/03 10:14:49;;;;;;;;;;;;;;;;;;2198301;67;1197;-65
2022/09/03 10:17:27;;;;;;;;;;;;;;;;;;2198711;67;1288;-65
2022/09/03 10:23:13;;;;;;;;;;;;;;;;;;2211445;67;1940;-65
2022/09/03 10:25:54;;;;;;;;;;;;;;;;;;2210553;67;1613;-63
2022/09/03 10:28:29;;;;;;;;;;;;;;;;;;2202884;59;1806;-65
2022/09/03 10:31:12;;;;;;;;;;;;;;;;;;2198650;66;1278;-63
2022/09/03 10:33:49;;;;;;;;;;;;;;;;;;2198823;67;1092;-65
2022/09/03 10:36:28;;;;;;;;;;;;;;;;;;2198429;67;1251;-64
2022/09/03 10:39:06;;;;;;;;;;;;;;;;;;2198559;67;1192;-65
2022/09/03 10:41:46;;;;;;;;;;;;;;;;;;2198800;67;1239;-64
2022/09/03 10:44:29;;;;;;;;;;;;;;;;;;2198466;67;1953;-63
2022/09/03 10:47:09;;;;;;;;;;;;;;;;;;2198912;67;1302;-65
2022/09/03 10:49:50;;;;;;;;;;;;;;;;;;2198294;67;1159;-65
2022/09/03 10:52:30;;;;;;;;;;;;;;;;;;2198632;67;1228;-64
2022/09/03 10:55:15;;;;;;;;;;;;;;;;;;2198723;67;1267;-62
2022/09/03 10:57:52;;;;;;;;;;;;;;;;;;2198250;67;1400;-63
2022/09/03 11:00:26;;;;;;;;;;;;;;;;;;2198675;67;1116;-65
2022/09/03 11:03:04;;;;;;;;;;;;;;;;;;2198347;59;1926;-66
2022/09/03 11:05:41;;;;;;;;;;;;;;;;;;2198022;67;1098;-65
2022/09/03 11:08:23;;;;;;;;;;;;;;;;;;2198296;67;1194;-64
2022/09/03 11:10:58;;;;;;;;;;;;;;;;;;2198422;59;1217;-65
2022/09/03 11:13:34;;;;;;;;;;;;;;;;;;2197942;67;1065;-63
2022/09/03 11:16:11;;;;;;;;;;;;;;;;;;2198274;67;1295;-65
2022/09/03 11:18:46;;;;;;;;;;;;;;;;;;2198074;67;1207;-65
2022/09/03 11:21:22;;;;;;;;;;;;;;;;;;2197865;59;1232;-62
2022/09/03 11:24:04;;;;;;;;;;;;;;;;;;2198535;67;1932;-62
2022/09/03 11:26:38;;;;;;;;;;;;;;;;;;2198086;59;1697;-64
2022/09/03 11:29:14;;;;;;;;;;;;;;;;;;2198738;59;1615;-63
2022/09/03 11:31:56;;;;;;;;;;;;;;;;;;2198249;67;1291;-62
2022/09/03 11:34:31;;;;;;;;;;;;;;;;;;2198544;67;1122;-62
2022/09/03 11:37:19;;;;;;;;;;;;;;;;;;2198379;59;1321;-59
2022/09/03 11:39:59;;;;;;;;;;;;;;;;;;2198326;67;1212;-62
2022/09/03 11:42:33;;;;;;;;;;;;;;;;;;2197916;67;1937;-64
2022/09/03 11:45:22;;;;;;;;;;;;;;;;;;2199279;67;1131;-64
2022/09/03 11:47:56;;;;;;;;;;;;;;;;;;2199785;67;1235;-65
2022/09/03 11:50:30;;;;;;;;;;;;;;;;;;2199435;67;1263;-64
2022/09/03 11:53:10;;;;;;;;;;;;;;;;;;2199753;67;1269;-64
2022/09/03 11:55:55;;;;;;;;;;;;;;;;;;2198992;67;1275;-64
2022/09/03 11:58:31;;;;;;;;;;;;;;;;;;2200079;67;1190;-64
2022/09/03 12:01:06;;;;;;;;;;;;;;;;;;2199872;67;1072;-64
2022/09/03 12:03:45;;;;;;;;;;;;;;;;;;2200277;59;1941;-65
2022/09/03 12:06:33;;;;;;;;;;;;;;;;;;2199263;67;1227;-64
2022/09/03 12:09:24;;;;;;;;;;;;;;;;;;2199581;67;1233;-63
2022/09/03 12:12:07;;;;;;;;;;;;;;;;;;2199817;59;1319;-63
2022/09/03 12:14:47;;;;;;;;;;;;;;;;;;2198747;67;1108;-67
2022/09/03 12:17:25;;;;;;;;;;;;;;;;;;2199474;67;1320;-65
2022/09/03 12:19:59;;;;;;;;;;;;;;;;;;2198589;67;1173;-64
2022/09/03 12:22:37;;;;;;;;;;;;;;;;;;2199497;67;1046;-64
2022/09/03 12:25:11;;;;;;;;;;;;;;;;;;2199355;67;2012;-64
2022/09/03 12:27:48;;;;;;;;;;;;;;;;;;2199408;59;1601;-65
2022/09/03 12:30:25;;;;;;;;;;;;;;;;;;2199566;67;1322;-62
2022/09/03 12:33:05;;;;;;;;;;;;;;;;;;2199186;67;1193;-64
2022/09/03 12:35:38;;;;;;;;;;;;;;;;;;2199067;59;1279;-65
2022/09/03 12:38:14;;;;;;;;;;;;;;;;;;2199416;67;1288;-64
2022/09/03 12:40:47;;;;;;;;;;;;;;;;;;2199403;67;1131;-62
2022/09/03 12:43:28;;;;;;;;;;;;;;;;;;2199142;67;1968;-63
2022/09/03 12:46:01;;;;;;;;;;;;;;;;;;2199099;67;1303;-62
2022/09/03 12:48:34;;;;;;;;;;;;;;;;;;2199405;67;1175;-65
2022/09/03 12:51:07;;;;;;;;;;;;;;;;;;2198539;67;1086;-59
2022/09/03 12:53:41;;;;;;;;;;;;;;;;;;2198891;67;1125;-63
2022/09/03 12:56:14;;;;;;;;;;;;;;;;;;2198589;67;1215;-64
2022/09/03 12:58:53;;;;;;;;;;;;;;;;;;2199169;67;1119;-62
2022/09/03 13:01:30;;;;;;;;;;;;;;;;;;2198963;67;1129;-63
2022/09/03 13:04:06;;;;;;;;;;;;;;;;;;2198962;59;1909;-64
2022/09/03 13:06:48;;;;;;;;;;;;;;;;;;2198262;67;1216;-65
2022/09/03 13:09:25;;;;;;;;;;;;;;;;;;2198603;67;1306;-64
2022/09/03 13:11:58;;;;;;;;;;;;;;;;;;2198829;59;1263;-64
2022/09/03 13:14:43;;;;;;;;;;;;;;;;;;2197787;67;1049;-63
2022/09/03 13:17:26;;;;;;;;;;;;;;;;;;2198815;67;1212;-65
2022/09/03 13:20:11;;;;;;;;;;;;;;;;;;2198187;59;1216;-63
2022/09/03 13:22:51;;;;;;;;;;;;;;;;;;2198575;67;1176;-64
2022/09/03 13:25:27;;;;;;;;;;;;;;;;;;2198604;67;1938;-64
2022/09/03 13:28:05;;;;;;;;;;;;;;;;;;2198887;59;1636;-64
2022/09/03 13:30:44;;;;;;;;;;;;;;;;;;2198558;67;1044;-63
2022/09/03 13:33:21;;;;;;;;;;;;;;;;;;2198928;67;1242;-64
2022/09/03 13:36:01;;;;;;;;;;;;;;;;;;2198353;59;1223;-65
2022/09/03 13:38:38;;;;;;;;;;;;;;;;;;2198735;67;1305;-63
2022/09/03 13:41:18;;;;;;;;;;;;;;;;;;2198899;67;1085;-65
2022/09/03 13:43:54;;;;;;;;;;;;;;;;;;2198398;67;1924;-64
2022/09/03 13:46:33;;;;;;;;;;;;;;;;;;2198803;67;1260;-65
2022/09/03 13:52:02;;;;;;;;;;;;;;;;;;2198749;67;1167;-65
2022/09/03 13:54:36;;;;;;;;;;;;;;;;;;2198759;67;1132;-65
2022/09/03 13:57:18;;;;;;;;;;;;;;;;;;2198902;67;1227;-64
2022/09/03 13:59:53;;;;;;;;;;;;;;;;;;2198310;67;1168;-65
2022/09/03 14:02:35;;;;;;;;;;;;;;;;;;2198277;67;1298;-65
2022/09/03 14:05:12;;;;;;;;;;;;;;;;;;2198455;59;1942;-65
2022/09/03 14:07:51;;;;;;;;;;;;;;;;;;2198230;67;1227;-65
2022/09/03 14:10:29;;;;;;;;;;;;;;;;;;2198528;59;1320;-65
2022/09/03 14:13:07;;;;;;;;;;;;;;;;;;2198976;59;1240;-63
2022/09/03 14:15:45;;;;;;;;;;;;;;;;;;2198478;67;1100;-65
2022/09/03 14:18:25;;;;;;;;;;;;;;;;;;2198803;66;1254;-65
2022/09/03 14:21:01;;;;;;;;;;;;;;;;;;2198622;60;1161;-64
2022/09/03 14:23:37;;;;;;;;;;;;;;;;;;2198060;67;1936;-64
2022/09/03 14:26:18;;;;;;;;;;;;;;;;;;2198378;59;1603;-64
2022/09/03 14:28:51;;;;;;;;;;;;;;;;;;2198423;59;1417;-65
2022/09/03 14:31:30;;;;;;;;;;;;;;;;;;2198590;67;1225;-65
2022/09/03 14:34:13;;;;;;;;;;;;;;;;;;2198947;67;1197;-65
2022/09/03 14:36:51;;;;;;;;;;;;;;;;;;2198049;59;1259;-65
2022/09/03 14:39:35;;;;;;;;;;;;;;;;;;2198713;67;1095;-64
2022/09/03 14:42:23;;;;;;;;;;;;;;;;;;2199020;67;1136;-65
2022/09/03 14:45:11;;;;;;;;;;;;;;;;;;2197950;67;2067;-65
2022/09/03 14:47:52;;;;;;;;;;;;;;;;;;2198371;67;1263;-64
2022/09/03 14:50:36;;;;;;;;;;;;;;;;;;2198045;67;1214;-65
2022/09/03 14:53:15;;;;;;;;;;;;;;;;;;2198875;67;1192;-64
2022/09/03 14:56:06;;;;;;;;;;;;;;;;;;2198020;67;1253;-63
2022/09/03 14:58:45;;;;;;;;;;;;;;;;;;2198073;67;1138;-64
2022/09/03 15:01:20;;;;;;;;;;;;;;;;;;2198264;67;1310;-65
2022/09/03 15:04:12;;;;;;;;;;;;;;;;;;2198839;59;1937;-65
2022/09/03 15:06:56;;;;;;;;;;;;;;;;;;2197867;67;1269;-64
2022/09/03 15:09:34;;;;;;;;;;;;;;;;;;2198744;66;1251;-64
2022/09/03 15:12:10;;;;;;;;;;;;;;;;;;2196171;59;2590;-65
2022/09/03 15:14:47;;;;;;;;;;;;;;;;;;2198269;67;1186;-63
2022/09/03 15:17:32;;;;;;;;;;;;;;;;;;2198520;67;1274;-63
2022/09/03 15:20:13;;;;;;;;;;;;;;;;;;2198924;59;2095;-65
2022/09/03 15:23:04;;;;;;;;;;;;;;;;;;2198573;59;1165;-65
2022/09/03 15:25:44;;;;;;;;;;;;;;;;;;2198134;67;1937;-63
2022/09/03 15:28:21;;;;;;;;;;;;;;;;;;2197809;59;1671;-64
2022/09/03 15:30:58;;;;;;;;;;;;;;;;;;2198251;67;1118;-65
2022/09/03 15:33:36;;;;;;;;;;;;;;;;;;2198673;59;1283;-65
2022/09/03 15:36:15;;;;;;;;;;;;;;;;;;2198596;59;1329;-62
2022/09/03 15:38:55;;;;;;;;;;;;;;;;;;2198304;67;1113;-65
2022/09/03 15:41:41;;;;;;;;;;;;;;;;;;2199008;67;1116;-61
2022/09/03 15:44:17;;;;;;;;;;;;;;;;;;2197977;67;1930;-65
2022/09/03 15:46:52;;;;;;;;;;;;;;;;;;2198871;59;1214;-60
2022/09/03 15:49:29;;;;;;;;;;;;;;;;;;2198895;67;1230;-61
2022/09/03 15:52:08;;;;;;;;;;;;;;;;;;2198234;67;1215;-60
2022/09/03 15:54:57;;;;;;;;;;;;;;;;;;2198839;67;1118;-66
2022/09/03 15:57:35;;;;;;;;;;;;;;;;;;2198597;67;1293;-65
2022/09/03 16:00:11;;;;;;;;;;;;;;;;;;2198978;67;1132;-64
2022/09/03 16:02:49;;;;;;;;;;;;;;;;;;2197810;59;1099;-63
2022/09/03 16:05:27;;;;;;;;;;;;;;;;;;2198641;67;1930;-65
2022/09/03 16:08:09;;;;;;;;;;;;;;;;;;2198096;67;1202;-64
2022/09/03 16:11:00;;;;;;;;;;;;;;;;;;2198468;59;1235;-65
2022/09/03 16:13:49;;;;;;;;;;;;;;;;;;2198382;67;1117;-63
2022/09/03 16:16:26;;;;;;;;;;;;;;;;;;2198006;67;1251;-65
2022/09/03 16:19:03;;;;;;;;;;;;;;;;;;2198296;67;1079;-65
2022/09/03 16:21:39;;;;;;;;;;;;;;;;;;2198375;59;1153;-63
2022/09/03 16:24:17;;;;;;;;;;;;;;;;;;2198842;67;1176;-64
2022/09/03 16:26:57;;;;;;;;;;;;;;;;;;2198095;59;1673;-64
2022/09/03 16:29:32;;;;;;;;;;;;;;;;;;2198038;67;1146;-64
2022/09/03 16:32:20;;;;;;;;;;;;;;;;;;2198740;67;1041;-63
2022/09/03 16:35:00;;;;;;;;;;;;;;;;;;2199245;59;1287;-59
2022/09/03 16:37:41;;;;;;;;;;;;;;;;;;2198792;59;1300;-61
2022/09/03 16:40:19;;;;;;;;;;;;;;;;;;2199207;67;1134;-62
2022/09/03 16:43:01;;;;;;;;;;;;;;;;;;2198819;67;1106;-63
2022/09/03 16:45:40;;;;;;;;;;;;;;;;;;2198695;67;2171;-63
2022/09/03 16:48:19;;;;;;;;;;;;;;;;;;2199135;67;1263;-63
2022/09/03 16:51:05;;;;;;;;;;;;;;;;;;2198610;67;1101;-62
2022/09/03 16:53:49;;;;;;;;;;;;;;;;;;2198960;67;1066;-63
2022/09/03 16:56:33;;;;;;;;;;;;;;;;;;2198720;67;1207;-61
2022/09/03 16:59:13;;;;;;;;;;;;;;;;;;2198837;67;1230;-61
2022/09/03 17:01:55;;;;;;;;;;;;;;;;;;2198390;67;1074;-62
2022/09/03 17:04:36;;;;;;;;;;;;;;;;;;2199219;59;1588;-63
2022/09/03 17:07:20;;;;;;;;;;;;;;;;;;2198422;67;1135;-63
2022/09/03 17:10:00;;;;;;;;;;;;;;;;;;2198919;59;1187;-63
2022/09/03 17:12:39;;;;;;;;;;;;;;;;;;2198721;60;1207;-60
2022/09/03 17:15:23;;;;;;;;;;;;;;;;;;2198776;67;1139;-65
2022/09/03 17:18:10;;;;;;;;;;;;;;;;;;2199093;67;1802;-62
2022/09/03 17:20:50;;;;;;;;;;;;;;;;;;2198466;59;1202;-64
2022/09/03 17:23:35;;;;;;;;;;;;;;;;;;2198700;67;1240;-62
2022/09/03 17:26:11;;;;;;;;;;;;;;;;;;2198674;67;2536;-63
2022/09/03 17:28:51;;;;;;;;;;;;;;;;;;2198140;59;1396;-63
2022/09/03 17:31:31;;;;;;;;;;;;;;;;;;2198745;67;1204;-64
2022/09/03 17:34:07;;;;;;;;;;;;;;;;;;2198878;67;1136;-64
2022/09/03 17:36:43;;;;;;;;;;;;;;;;;;2198388;59;1221;-64
2022/09/03 17:39:26;;;;;;;;;;;;;;;;;;2198807;67;1219;-62
2022/09/03 17:42:05;;;;;;;;;;;;;;;;;;2198843;67;1198;-64
2022/09/03 17:44:48;;;;;;;;;;;;;;;;;;2198689;67;1103;-63
2022/09/03 17:47:43;;;;;;;;;;;;;;;;;;2198981;67;1292;-64
2022/09/03 17:50:19;;;;;;;;;;;;;;;;;;2198777;67;1240;-64
2022/09/03 17:52:55;;;;;;;;;;;;;;;;;;2199070;67;1160;-65
2022/09/03 17:55:32;;;;;;;;;;;;;;;;;;2199127;67;1113;-61
2022/09/03 17:58:11;;;;;;;;;;;;;;;;;;2198950;67;1207;-65
2022/09/03 18:00:51;;;;;;;;;;;;;;;;;;2198364;67;1721;-63
2022/09/03 18:03:31;;;;;;;;;;;;;;;;;;2199175;59;1211;-64
2022/09/03 18:06:07;;;;;;;;;;;;;;;;;;2198443;67;1993;-64
2022/09/03 18:08:46;;;;;;;;;;;;;;;;;;2198440;59;1422;-63
2022/09/03 18:11:20;;;;;;;;;;;;;;;;;;2199074;59;1262;-63
2022/09/03 18:13:59;;;;;;;;;;;;;;;;;;2198446;67;1137;-64
2022/09/03 18:16:33;;;;;;;;;;;;;;;;;;2198968;67;1266;-64
2022/09/03 20:11:46;;;;;;;;;;;;;;;;;;2198800;59;1164;-62
2022/09/03 20:14:20;;;;;;;;;;;;;;;;;;2198980;67;1277;-66
2022/09/03 20:17:03;;;;;;;;;;;;;;;;;;2199032;67;1278;-62
2022/09/03 20:19:47;;;;;;;;;;;;;;;;;;2199029;67;1053;-63